Time;durP1;ratioP1;P1;durP2;ratioP2;P2;SDS_P1;SDS_P2;PMS_P1;PMS_P2;Temp;Humidity;BMP_temperature;BMP_pressure;BME280_temperature;BME280_humidity;BME280_pressure;Samples;Min_cycle;Max_cycle;Signal;HPM_P1;HPM_P2
2023/10/18 00:01:25;;;;;;;1.65;0.60;;;;;;;5.31;84.13;98437.81;5063943;28;20040;-42
2023/10/18 00:03:56;;;;;;;1.38;0.38;;;;;;;5.26;84.36;98437.13;5064539;28;20044;-43
2023/10/18 00:06:23;;;;;;;1.50;0.70;;;;;;;5.28;84.20;98448.25;5064567;28;20048;-44
2023/10/18 00:08:57;;;;;;;1.65;0.68;;;;;;;5.30;84.18;98453.31;5066021;28;20041;-44
2023/10/18 00:11:26;;;;;;;1.35;0.40;;;;;;;5.12;83.69;98416.16;5066158;28;20058;-42
2023/10/18 00:13:53;;;;;;;3.22;1.02;;;;;;;5.38;83.77;98444.47;5067783;28;20056;-42
2023/10/18 00:16:24;;;;;;;1.98;0.40;;;;;;;5.41;83.00;98453.81;5047597;28;20573;-42
2023/10/18 00:18:50;;;;;;;1.13;0.60;;;;;;;5.44;83.19;98446.00;5064247;28;20529;-42
2023/10/18 00:21:16;;;;;;;1.02;0.47;;;;;;;5.41;83.33;98446.09;5068175;28;20043;-42
2023/10/18 00:23:44;;;;;;;1.17;0.40;;;;;;;5.49;82.63;98442.38;5066135;28;20098;-42
2023/10/18 00:26:11;;;;;;;1.02;0.52;;;;;;;5.44;82.45;98453.75;5066721;28;20166;-41
2023/10/18 00:28:38;;;;;;;3.47;0.63;;;;;;;5.43;82.02;98447.75;5045964;28;20071;-42
2023/10/18 00:31:12;;;;;;;0.88;0.30;;;;;;;5.45;82.21;98456.25;5063082;28;20055;-41
2023/10/18 00:33:39;;;;;;;1.75;0.40;;;;;;;5.54;81.99;98455.09;5076369;28;20043;-43
2023/10/18 00:36:08;;;;;;;0.90;0.30;;;;;;;5.59;81.92;98458.38;5063876;28;20089;-43
2023/10/18 00:38:38;;;;;;;1.23;0.50;;;;;;;5.52;81.48;98456.88;5049094;28;20088;-42
2023/10/18 00:41:07;;;;;;;0.93;0.53;;;;;;;5.60;81.34;98460.03;5049697;28;20036;-43
2023/10/18 00:43:33;;;;;;;1.02;0.55;;;;;;;5.38;81.08;98430.75;5043708;28;20294;-42
2023/10/18 00:45:59;;;;;;;0.75;0.32;;;;;;;5.36;80.67;98430.78;5063976;28;20036;-43
2023/10/18 00:48:30;;;;;;;1.30;0.50;;;;;;;5.45;80.60;98453.66;5063731;28;20060;-43
2023/10/18 00:50:58;;;;;;;1.33;0.52;;;;;;;5.43;80.70;98454.63;5065085;28;20094;-44
2023/10/18 00:53:30;;;;;;;2.35;0.50;;;;;;;5.39;80.83;98455.63;5061987;28;20128;-42
2023/10/18 00:55:59;;;;;;;0.80;0.30;;;;;;;5.39;80.72;98464.16;5063840;28;20086;-43
2023/10/18 00:58:32;;;;;;;0.80;0.50;;;;;;;5.43;80.70;98468.34;5063932;28;20526;-44
2023/10/18 01:01:09;;;;;;;1.20;0.60;;;;;;;5.40;80.49;98455.56;5065494;28;20122;-42
2023/10/18 01:03:42;;;;;;;1.60;0.50;;;;;;;5.28;80.40;98424.22;5044080;28;20125;-42
2023/10/18 01:06:16;;;;;;;0.70;0.40;;;;;;;5.46;79.79;98463.09;5065472;28;20067;-43
2023/10/18 01:08:46;;;;;;;1.35;0.68;;;;;;;5.41;80.16;98464.97;5066966;28;20792;-42
2023/10/18 01:11:12;;;;;;;;;;;;;;;5.41;80.02;98466.72;5067479;28;20045;-42
2023/10/18 01:13:41;;;;;;;0.65;0.40;;;;;;;5.48;80.22;98470.78;5066891;28;19960;-42
2023/10/18 01:16:21;;;;;;;3.22;0.75;;;;;;;5.52;80.26;98465.47;5062130;28;20087;-42
2023/10/18 01:18:48;;;;;;;;;;;;;;;5.57;79.78;98482.50;5064191;28;20458;-42
2023/10/18 01:21:19;;;;;;;1.20;0.50;;;;;;;5.53;79.24;98472.31;5066917;28;19924;-43
2023/10/18 01:23:53;;;;;;;2.00;0.60;;;;;;;5.58;79.83;98471.31;5065578;28;20401;-43
2023/10/18 01:26:32;;;;;;;1.52;0.68;;;;;;;5.61;78.74;98482.34;5064988;28;20055;-42
2023/10/18 01:29:03;;;;;;;1.88;0.68;;;;;;;5.57;79.11;98487.66;5065462;28;20041;-43
2023/10/18 01:31:29;;;;;;;0.68;0.50;;;;;;;5.60;79.12;98483.22;5065073;28;20132;-42
2023/10/18 01:33:55;;;;;;;1.58;0.60;;;;;;;5.65;78.83;98483.94;5066057;28;20048;-42
2023/10/18 01:36:21;;;;;;;2.38;0.82;;;;;;;5.72;78.68;98488.00;5066737;28;20094;-41
2023/10/18 01:38:49;;;;;;;1.67;0.70;;;;;;;5.68;77.65;98493.31;5082136;28;20036;-43
2023/10/18 01:41:25;;;;;;;1.63;1.05;;;;;;;5.72;77.60;98490.56;5066722;28;20041;-42
2023/10/18 01:43:53;;;;;;;1.48;0.55;;;;;;;5.77;77.56;98482.66;5064799;28;20037;-42
2023/10/18 01:46:19;;;;;;;2.65;0.77;;;;;;;5.85;77.17;98485.84;5036434;28;20067;-42
2023/10/18 01:48:50;;;;;;;0.80;0.63;;;;;;;5.72;77.01;98485.41;5053182;28;20051;-42
2023/10/18 01:51:16;;;;;;;1.17;0.60;;;;;;;5.77;77.40;98500.72;5048460;28;20458;-42
2023/10/18 01:53:43;;;;;;;0.95;0.63;;;;;;;5.52;77.00;98462.88;5065943;28;20044;-42
2023/10/18 01:56:10;;;;;;;2.10;0.63;;;;;;;5.83;77.61;98493.63;5049589;28;20621;-42
2023/10/18 01:58:37;;;;;;;0.85;0.40;;;;;;;5.81;76.80;98502.31;5043980;28;20045;-41
2023/10/18 02:01:08;;;;;;;2.15;0.60;;;;;;;5.73;77.54;98497.41;5082893;28;20036;-43
2023/10/18 02:03:40;;;;;;;0.60;0.40;;;;;;;5.68;77.14;98496.72;5067732;28;20474;-44
2023/10/18 02:06:06;;;;;;;0.55;0.20;;;;;;;5.65;77.72;98502.00;5067160;28;20086;-43
2023/10/18 02:08:36;;;;;;;1.48;0.40;;;;;;;5.64;78.34;98496.88;5070169;28;20036;-42
2023/10/18 02:11:06;;;;;;;1.70;0.70;;;;;;;5.66;78.55;98502.81;5051475;28;20474;-41
2023/10/18 02:13:36;;;;;;;2.80;0.40;;;;;;;5.63;78.85;98508.09;5051926;28;20131;-44
2023/10/18 02:16:19;;;;;;;0.10;0.10;;;;;;;5.50;78.72;98477.56;5056459;28;20036;-43
2023/10/18 02:18:49;;;;;;;1.50;0.47;;;;;;;5.58;79.20;98505.66;5069561;28;20058;-42
2023/10/18 02:21:15;;;;;;;2.00;0.43;;;;;;;5.58;79.77;98507.41;5070659;28;20044;-42
2023/10/18 02:23:42;;;;;;;3.63;0.57;;;;;;;5.54;80.10;98502.34;5085327;28;20032;-43
2023/10/18 02:28:53;;;;;;;3.10;0.40;;;;;;;5.45;80.08;98491.47;5069412;28;20039;-43
2023/10/18 02:31:22;;;;;;;0.90;0.65;;;;;;;5.46;80.57;98494.00;5069691;28;20085;-43
2023/10/18 02:33:48;;;;;;;3.25;0.50;;;;;;;5.52;81.01;98500.72;5054928;28;20369;-40
2023/10/18 02:36:21;;;;;;;9.52;0.65;;;;;;;5.53;80.96;98503.25;5067386;28;20539;-43
2023/10/18 02:38:52;;;;;;;1.08;0.47;;;;;;;5.41;80.71;98487.31;5069516;28;20381;-44
2023/10/18 02:41:26;;;;;;;0.95;0.40;;;;;;;5.55;80.91;98509.16;5069230;28;20068;-43
2023/10/18 02:43:57;;;;;;;1.20;0.28;;;;;;;5.58;81.00;98508.25;5069061;28;20044;-43
2023/10/18 02:46:24;;;;;;;0.73;0.28;;;;;;;5.34;80.83;98470.41;5051469;28;20078;-42
2023/10/18 02:48:52;;;;;;;1.20;0.57;;;;;;;5.52;81.32;98509.28;5069239;28;20098;-42
2023/10/18 02:51:22;;;;;;;1.10;0.40;;;;;;;5.52;81.48;98503.28;5054871;28;20049;-41
2023/10/18 02:53:49;;;;;;;0.57;0.40;;;;;;;5.62;81.04;98501.25;5049810;28;20044;-42
2023/10/18 02:56:20;;;;;;;0.55;0.35;;;;;;;5.51;80.74;98478.38;5067744;28;20051;-41
2023/10/18 02:58:47;;;;;;;0.20;0.20;;;;;;;5.62;80.65;98506.41;5058902;28;20041;-40
2023/10/18 03:01:19;;;;;;;1.27;0.60;;;;;;;5.61;80.94;98505.53;5063714;28;20052;-43
2023/10/18 03:03:54;;;;;;;0.65;0.35;;;;;;;5.64;80.92;98499.47;5080975;28;20040;-42
2023/10/18 03:06:24;;;;;;;0.98;0.20;;;;;;;5.67;81.03;98505.34;5066453;28;20067;-43
2023/10/18 03:08:50;;;;;;;0.52;0.32;;;;;;;5.62;80.81;98496.09;5062444;28;20048;-42
2023/10/18 03:11:20;;;;;;;0.70;0.40;;;;;;;5.62;80.74;98509.81;5052235;28;20048;-44
2023/10/18 03:13:48;;;;;;;0.52;0.30;;;;;;;5.60;80.55;98490.16;5067447;28;20489;-44
2023/10/18 03:18:42;;;;;;;1.08;0.45;;;;;;;5.62;81.11;98501.25;5067907;28;20515;-42
2023/10/18 03:21:08;;;;;;;1.13;0.70;;;;;;;5.61;80.70;98489.22;5050556;28;20044;-43
2023/10/18 03:23:44;;;;;;;1.45;0.50;;;;;;;5.61;80.98;98492.66;5065578;28;20044;-43
2023/10/18 03:26:11;;;;;;;1.95;0.40;;;;;;;5.61;81.10;98500.38;5082387;28;20050;-43
2023/10/18 03:28:41;;;;;;;0.30;0.28;;;;;;;5.42;81.14;98478.72;5066032;28;20439;-41
2023/10/18 03:31:24;;;;;;;;;;;;;;;5.60;81.01;98509.00;5066596;28;20089;-44
2023/10/18 03:33:59;;;;;;;1.63;0.55;;;;;;;5.61;80.94;98499.53;5064201;28;19915;-43
2023/10/18 03:36:26;;;;;;;1.98;0.52;;;;;;;5.66;81.12;98503.66;5067168;28;20454;-40
2023/10/18 03:39:10;;;;;;;1.15;0.45;;;;;;;5.50;81.38;98480.13;5066624;28;20047;-42
2023/10/18 03:41:40;;;;;;;0.80;0.40;;;;;;;5.50;81.54;98485.28;5061839;28;20040;-43
2023/10/18 03:44:13;;;;;;;2.15;0.47;;;;;;;5.70;81.50;98505.25;5064868;28;20066;-43
2023/10/18 03:46:47;;;;;;;3.90;0.50;;;;;;;5.72;81.75;98505.19;5067295;28;20080;-49
2023/10/18 03:49:23;;;;;;;0.82;0.50;;;;;;;5.69;81.54;98507.88;5046516;28;20041;-45
2023/10/18 03:51:51;;;;;;;0.73;0.50;;;;;;;5.71;81.75;98514.66;5067818;28;20044;-46
2023/10/18 03:54:19;;;;;;;1.42;0.65;;;;;;;5.74;81.46;98511.16;5040727;28;20040;-46
2023/10/18 03:56:51;;;;;;;1.67;0.60;;;;;;;5.58;81.07;98482.47;5066974;28;20789;-47
2023/10/18 03:59:22;;;;;;;0.50;0.40;;;;;;;5.73;81.18;98510.31;5049609;28;20488;-47
2023/10/18 04:04:38;;;;;;;1.65;0.70;;;;;;;5.78;80.66;98518.72;5064501;28;20217;-44
2023/10/18 04:07:16;;;;;;;1.77;0.95;;;;;;;5.81;81.05;98518.59;5067586;28;20150;-49
2023/10/18 04:10:35;;;;;;;1.25;0.57;;;;;;;5.59;80.88;98471.25;5060807;28;20491;-48
2023/10/18 04:12:34;;;;;;;1.48;0.50;;;;;;;5.84;80.59;98528.00;5042155;28;20048;-47
2023/10/18 04:15:00;;;;;;;1.95;0.50;;;;;;;5.79;80.51;98530.72;5066842;28;20716;-47
2023/10/18 04:17:37;;;;;;;1.60;0.45;;;;;;;5.75;80.90;98531.75;5049492;28;20069;-49
2023/10/18 04:22:47;;;;;;;4.03;0.90;;;;;;;5.59;80.94;98503.94;5065674;28;20045;-45
2023/10/18 04:25:31;;;;;;;1.60;0.90;;;;;;;5.75;80.86;98534.31;5049057;28;20043;-47
2023/10/18 04:27:59;;;;;;;0.88;0.80;;;;;;;5.42;81.01;98466.66;5064565;28;20055;-45
2023/10/18 04:30:29;;;;;;;2.33;0.68;;;;;;;5.82;80.89;98533.19;5065020;28;20131;-47
2023/10/18 04:33:00;;;;;;;5.85;1.15;;;;;;;5.73;80.61;98533.50;5067989;28;20055;-46
2023/10/18 04:35:29;;;;;;;1.17;0.85;;;;;;;5.77;80.52;98529.94;5065811;28;20032;-46
2023/10/18 04:37:56;;;;;;;3.00;0.40;;;;;;;5.71;80.62;98535.28;5065493;28;20043;-48
2023/10/18 04:40:22;;;;;;;1.50;0.57;;;;;;;5.69;80.91;98524.19;5066575;28;20048;-45
2023/10/18 04:42:56;;;;;;;1.02;0.80;;;;;;;5.70;81.00;98535.34;5058117;28;20059;-45
2023/10/18 04:45:23;;;;;;;0.68;0.45;;;;;;;5.61;81.03;98517.59;5065671;28;20086;-46
2023/10/18 04:47:57;;;;;;;2.13;0.70;;;;;;;5.79;80.53;98545.34;5066906;28;20036;-45
2023/10/18 04:50:32;;;;;;;2.35;0.80;;;;;;;5.76;80.30;98535.97;5066162;28;20081;-50
2023/10/18 04:53:00;;;;;;;2.58;0.60;;;;;;;5.74;80.93;98542.09;5065468;28;20048;-46
2023/10/18 04:55:26;;;;;;;0.85;0.45;;;;;;;5.70;80.84;98551.69;5032684;28;20048;-44
2023/10/18 04:57:53;;;;;;;0.98;0.60;;;;;;;5.72;80.89;98559.34;5062396;28;20507;-48
2023/10/18 05:00:35;;;;;;;4.28;0.88;;;;;;;5.75;81.05;98557.53;5050489;28;20518;-46
2023/10/18 05:03:07;;;;;;;1.50;0.60;;;;;;;5.75;80.99;98548.94;5067200;28;20068;-48
2023/10/18 05:05:44;;;;;;;1.65;0.98;;;;;;;5.82;80.81;98560.72;5064233;28;20412;-48
2023/10/18 05:08:15;;;;;;;3.80;0.90;;;;;;;5.81;80.72;98556.47;5065394;28;20073;-46
2023/10/18 05:10:45;;;;;;;1.63;1.00;;;;;;;5.73;80.92;98567.03;5066147;28;20032;-46
2023/10/18 05:13:45;;;;;;;2.92;0.85;;;;;;;5.74;80.72;98561.00;5048666;28;20044;-47
2023/10/18 05:16:04;;;;;;;1.80;0.47;;;;;;;5.71;80.79;98566.22;5064318;28;20044;-45
2023/10/18 05:18:30;;;;;;;0.95;0.45;;;;;;;5.53;81.03;98531.59;5047710;28;20071;-47
2023/10/18 05:21:06;;;;;;;1.52;0.70;;;;;;;5.71;80.93;98555.91;5047387;28;20044;-46
2023/10/18 05:23:35;;;;;;;2.75;1.00;;;;;;;5.71;80.27;98563.66;5064074;28;20041;-46
2023/10/18 05:28:49;;;;;;;1.13;0.73;;;;;;;5.69;80.31;98560.28;5051552;28;20078;-47
2023/10/18 05:33:49;;;;;;;1.30;0.80;;;;;;;5.82;80.27;98561.56;5035262;28;20044;-46
2023/10/18 05:44:01;;;;;;;3.40;1.00;;;;;;;5.84;79.68;98567.53;5070459;28;20119;-46
2023/10/18 05:46:28;;;;;;;2.92;1.15;;;;;;;5.79;79.95;98568.56;5070444;28;20147;-51
2023/10/18 05:48:57;;;;;;;3.97;1.08;;;;;;;5.81;79.54;98583.09;5052879;28;20044;-48
2023/10/18 05:54:04;;;;;;;2.65;1.02;;;;;;;5.75;79.56;98573.00;5070789;28;19923;-48
2023/10/18 05:56:33;;;;;;;2.55;0.90;;;;;;;5.80;79.28;98584.00;5070700;28;20079;-49
2023/10/18 06:01:58;;;;;;;1.88;0.90;;;;;;;5.79;79.74;98584.03;5069148;28;20032;-47
2023/10/18 06:04:25;;;;;;;3.33;0.80;;;;;;;5.74;79.06;98583.34;5070311;28;20102;-48
2023/10/18 06:06:58;;;;;;;0.50;0.43;;;;;;;5.47;78.75;98556.72;5069402;28;20044;-46
2023/10/18 06:09:29;;;;;;;1.90;0.93;;;;;;;5.66;78.36;98586.16;5068626;28;20483;-48
2023/10/18 06:11:56;;;;;;;1.65;0.80;;;;;;;5.66;77.87;98588.75;5069737;28;20040;-47
2023/10/18 06:14:26;;;;;;;2.28;0.95;;;;;;;5.66;78.93;98585.31;5069137;28;20050;-45
2023/10/18 06:17:05;;;;;;;2.47;1.17;;;;;;;5.63;78.32;98573.38;5069715;28;20123;-46
2023/10/18 06:19:36;;;;;;;3.67;0.90;;;;;;;5.74;77.43;98597.09;5069766;28;20045;-43
2023/10/18 06:24:51;;;;;;;2.28;1.05;;;;;;;5.76;77.47;98590.13;5062669;28;20219;-45
2023/10/18 06:27:17;;;;;;;1.17;0.60;;;;;;;5.90;77.72;98582.84;5069529;28;20047;-46
2023/10/18 06:29:52;;;;;;;4.63;1.00;;;;;;;5.91;76.87;98587.06;5051591;28;20423;-44
2023/10/18 06:32:22;;;;;;;7.25;1.02;;;;;;;6.06;76.42;98590.06;5068797;28;20167;-46
2023/10/18 06:34:55;;;;;;;1.38;0.63;;;;;;;6.00;75.59;98587.69;5068367;28;20075;-45
2023/10/18 06:37:23;;;;;;;1.17;0.70;;;;;;;5.80;75.91;98571.09;5067773;28;20040;-47
2023/10/18 06:39:51;;;;;;;1.20;0.70;;;;;;;5.89;76.07;98590.63;5069513;28;20522;-45
2023/10/18 06:42:18;;;;;;;2.78;0.90;;;;;;;6.15;75.47;98589.75;5066970;28;20551;-46
2023/10/18 06:44:44;;;;;;;0.93;0.80;;;;;;;6.13;74.84;98589.78;5068917;28;20040;-47
2023/10/18 06:47:13;;;;;;;3.28;1.20;;;;;;;6.11;74.99;98586.44;5069297;28;20063;-47
2023/10/18 06:49:47;;;;;;;1.80;0.80;;;;;;;6.18;74.32;98587.03;5051574;28;20475;-45
2023/10/18 06:52:14;;;;;;;1.23;1.10;;;;;;;6.21;73.79;98592.97;5068761;28;20041;-45
2023/10/18 06:54:40;;;;;;;1.73;0.82;;;;;;;6.17;73.83;98585.38;5061815;28;20036;-46
2023/10/18 06:57:15;;;;;;;5.28;1.20;;;;;;;6.01;73.76;98551.53;5069180;28;20516;-50
2023/10/18 06:59:46;;;;;;;1.48;0.70;;;;;;;6.29;72.70;98565.13;5068088;28;20044;-49
2023/10/18 07:02:13;;;;;;;5.05;1.13;;;;;;;6.41;71.09;98556.13;5083957;28;20036;-47
2023/10/18 07:04:39;;;;;;;2.22;0.90;;;;;;;6.89;69.89;98586.22;5066943;28;20064;-47
2023/10/18 07:07:13;;;;;;;2.42;1.08;;;;;;;7.35;68.99;98596.50;5068540;28;20043;-50
2023/10/18 07:09:43;;;;;;;1.00;0.80;;;;;;;7.35;67.45;98595.66;5067528;28;20036;-49
2023/10/18 07:12:13;;;;;;;3.65;1.10;;;;;;;7.40;67.29;98597.19;5063450;28;20044;-46
2023/10/18 07:14:39;;;;;;;2.47;0.98;;;;;;;7.60;66.55;98593.78;5068143;28;20048;-46
2023/10/18 07:17:09;;;;;;;1.85;0.90;;;;;;;7.60;66.17;98592.06;5068801;28;20040;-46
2023/10/18 07:19:47;;;;;;;0.90;0.70;;;;;;;7.91;65.22;98588.22;5056945;28;20508;-46
2023/10/18 07:22:21;;;;;;;1.88;0.75;;;;;;;7.98;64.65;98595.69;5061689;28;20466;-46
2023/10/18 07:24:54;;;;;;;4.28;0.80;;;;;;;8.15;64.03;98583.78;5050189;28;20419;-51
2023/10/18 07:27:20;;;;;;;2.10;0.90;;;;;;;8.47;63.56;98581.56;5068539;28;20128;-45
2023/10/18 07:29:48;;;;;;;2.13;0.90;;;;;;;9.42;62.19;98587.63;5067386;28;20044;-51
2023/10/18 07:32:20;;;;;;;3.80;0.90;;;;;;;10.20;60.08;98594.13;5066449;28;20067;-48
2023/10/18 07:34:48;;;;;;;5.93;1.23;;;;;;;9.52;59.50;98594.91;5066269;28;20185;-45
2023/10/18 07:37:17;;;;;;;3.58;0.80;;;;;;;10.24;58.25;98604.38;5039362;28;20060;-47
2023/10/18 07:39:48;;;;;;;1.25;0.70;;;;;;;11.68;54.76;98573.19;5084478;28;20063;-47
2023/10/18 07:42:19;;;;;;;3.03;1.13;;;;;;;12.79;51.06;98554.47;5051293;28;20041;-50
2023/10/18 07:44:46;;;;;;;0.73;0.60;;;;;;;13.94;49.13;98588.06;5068760;28;20046;-47
2023/10/18 07:47:19;;;;;;;1.20;0.70;;;;;;;12.99;49.23;98602.81;5054566;28;20519;-45
2023/10/18 07:49:47;;;;;;;1.48;0.80;;;;;;;13.36;49.70;98594.41;5066964;28;20044;-46
2023/10/18 07:52:14;;;;;;;2.72;0.60;;;;;;;13.85;47.77;98592.13;5067170;28;20040;-48
2023/10/18 07:54:40;;;;;;;5.18;1.00;;;;;;;12.66;48.93;98595.28;5062453;28;20131;-48
2023/10/18 07:57:15;;;;;;;2.08;0.98;;;;;;;12.09;50.12;98592.53;5067109;28;20081;-50
2023/10/18 07:59:47;;;;;;;4.28;1.00;;;;;;;13.30;48.90;98597.38;5067199;28;20051;-50
2023/10/18 08:02:23;;;;;;;3.90;1.42;;;;;;;14.55;47.03;98597.09;5065889;28;20063;-49
2023/10/18 08:04:51;;;;;;;5.88;0.82;;;;;;;14.60;45.70;98593.19;5050758;28;20033;-45
2023/10/18 08:07:20;;;;;;;5.85;1.08;;;;;;;14.37;46.20;98575.63;5066794;28;20062;-48
2023/10/18 08:09:57;;;;;;;1.75;1.00;;;;;;;14.71;45.44;98605.53;5066252;28;20052;-49
2023/10/18 08:14:50;;;;;;;1.67;0.70;;;;;;;12.19;48.21;98616.31;5066151;28;20487;-47
2023/10/18 08:17:29;;;;;;;1.23;0.50;;;;;;;11.33;50.39;98612.44;5068111;28;20128;-48
2023/10/18 08:20:54;;;;;;;3.53;1.13;;;;;;;10.94;51.43;98602.41;5067649;28;20042;-49
2023/10/18 08:23:19;;;;;;;0.70;0.47;;;;;;;10.16;52.40;98574.44;5066344;28;20098;-46
2023/10/18 08:25:51;;;;;;;1.13;0.60;;;;;;;9.71;53.70;98611.25;5055572;28;20037;-47
2023/10/18 08:28:20;;;;;;;2.08;0.68;;;;;;;9.42;55.13;98606.59;5081934;28;20420;-47
2023/10/18 08:33:15;;;;;;;0.63;0.43;;;;;;;8.71;57.03;98618.50;5065701;28;20046;-47
2023/10/18 08:35:41;;;;;;;8.63;0.90;;;;;;;8.73;57.42;98621.88;5067191;28;20040;-46
2023/10/18 08:38:07;;;;;;;3.60;0.75;;;;;;;9.03;57.52;98624.84;5065742;28;20037;-45
2023/10/18 08:40:37;;;;;;;6.03;1.50;;;;;;;8.95;56.52;98618.31;5065573;28;20044;-49
2023/10/18 08:43:29;;;;;;;1.73;0.60;;;;;;;8.83;57.13;98623.13;5078822;28;20048;-47
2023/10/18 08:45:55;;;;;;;0.88;0.50;;;;;;;8.40;56.96;98567.19;5065518;28;20150;-45
2023/10/18 08:48:38;;;;;;;3.15;0.75;;;;;;;8.63;57.15;98630.94;5065389;28;20044;-49
2023/10/18 08:51:05;;;;;;;4.15;0.90;;;;;;;8.38;57.92;98613.00;5066067;28;20044;-46
2023/10/18 08:53:31;;;;;;;2.03;0.80;;;;;;;8.31;58.02;98606.41;5032027;28;20033;-48
2023/10/18 08:55:58;;;;;;;1.80;0.70;;;;;;;8.43;58.55;98605.03;5066922;28;20064;-45
2023/10/18 08:58:30;;;;;;;3.42;0.65;;;;;;;8.44;58.37;98617.94;5063812;28;20071;-47
2023/10/18 09:03:28;;;;;;;3.50;0.65;;;;;;;8.50;58.02;98628.03;5064939;28;20044;-49
2023/10/18 09:06:07;;;;;;;2.25;0.77;;;;;;;8.18;59.16;98606.94;5038503;28;20535;-47
2023/10/18 09:08:38;;;;;;;2.13;0.40;;;;;;;8.14;60.22;98608.00;5065092;28;20036;-46
2023/10/18 09:11:20;;;;;;;1.92;0.75;;;;;;;8.08;59.94;98601.31;5062808;28;20340;-47
2023/10/18 09:14:07;;;;;;;1.65;0.85;;;;;;;8.05;60.36;98604.91;5051200;28;20512;-44
2023/10/18 09:16:39;;;;;;;2.95;0.85;;;;;;;7.87;60.44;98556.47;5064619;28;20470;-46
2023/10/18 09:19:06;;;;;;;1.98;0.68;;;;;;;8.25;60.24;98609.22;5078613;28;20049;-47
2023/10/18 09:22:17;;;;;;;1.90;0.85;;;;;;;7.89;60.50;98583.13;5066153;28;20040;-46
2023/10/18 09:24:29;;;;;;;5.20;1.33;;;;;;;8.19;60.83;98608.63;5046124;28;20067;-46
2023/10/18 09:26:57;;;;;;;3.65;0.98;;;;;;;8.15;60.82;98602.75;5064663;28;20041;-47
2023/10/18 09:29:26;;;;;;;1.75;1.15;;;;;;;7.93;61.04;98574.34;5065660;28;20100;-46
2023/10/18 09:32:32;;;;;;;1.40;0.70;;;;;;;8.19;61.19;98601.72;5065699;28;20041;-48
2023/10/18 09:34:44;;;;;;;1.02;0.52;;;;;;;8.20;60.65;98607.75;5066312;28;20040;-48
2023/10/18 09:37:12;;;;;;;2.65;1.10;;;;;;;8.08;60.78;98609.09;5065078;28;20070;-48
2023/10/18 09:39:38;;;;;;;1.17;0.50;;;;;;;8.10;61.08;98604.69;5078123;28;20042;-47
2023/10/18 09:42:15;;;;;;;2.13;1.02;;;;;;;8.00;60.73;98600.81;5065327;28;20059;-49
2023/10/18 09:44:41;;;;;;;1.77;1.00;;;;;;;8.28;60.75;98598.72;5064973;28;20565;-47
2023/10/18 09:47:08;;;;;;;2.67;1.23;;;;;;;9.41;58.23;98604.94;5066178;28;20048;-50
2023/10/18 09:49:35;;;;;;;2.25;1.00;;;;;;;9.42;57.12;98592.81;5065569;28;20452;-47
2023/10/18 09:52:04;;;;;;;2.78;1.13;;;;;;;8.86;57.11;98596.22;5066227;28;20123;-47
2023/10/18 09:54:34;;;;;;;1.55;1.17;;;;;;;8.59;57.27;98597.44;5063763;28;20074;-50
2023/10/18 09:57:01;;;;;;;2.38;1.15;;;;;;;8.63;57.63;98597.28;5081610;28;20715;-48
2023/10/18 09:59:48;;;;;;;1.40;0.70;;;;;;;8.75;57.12;98588.94;5048550;28;20047;-48
2023/10/18 10:02:16;;;;;;;3.22;0.82;;;;;;;8.64;57.04;98590.31;5064943;28;20439;-47
2023/10/18 10:04:43;;;;;;;2.95;0.90;;;;;;;8.77;56.96;98592.31;5064400;28;20093;-47
2023/10/18 10:07:27;;;;;;;2.42;0.98;;;;;;;8.89;56.51;98573.63;5066652;28;20047;-46
2023/10/18 10:10:07;;;;;;;4.50;1.30;;;;;;;9.47;56.38;98601.22;5065557;28;20082;-49
2023/10/18 10:12:41;;;;;;;1.65;0.70;;;;;;;9.56;55.20;98588.63;5062596;28;20064;-47
2023/10/18 10:15:13;;;;;;;2.60;0.70;;;;;;;9.67;55.21;98599.34;5064121;28;20515;-49
2023/10/18 10:17:42;;;;;;;1.70;0.70;;;;;;;9.60;55.15;98595.34;5066346;28;20062;-47
2023/10/18 10:20:15;;;;;;;1.83;0.80;;;;;;;9.55;55.41;98591.28;5060045;28;20033;-49
2023/10/18 10:22:43;;;;;;;4.40;0.80;;;;;;;9.46;55.72;98597.78;5066474;28;20079;-45
2023/10/18 10:25:15;;;;;;;1.27;0.85;;;;;;;9.44;55.34;98590.97;5049565;28;20048;-45
2023/10/18 10:27:41;;;;;;;2.53;0.90;;;;;;;9.46;55.59;98584.81;5068165;28;20481;-47
2023/10/18 10:32:45;;;;;;;3.03;1.05;;;;;;;9.14;56.76;98593.25;5066933;28;20054;-46
2023/10/18 10:35:15;;;;;;;2.08;1.00;;;;;;;9.18;57.04;98589.59;5068251;28;20040;-44
2023/10/18 10:37:55;;;;;;;2.75;0.88;;;;;;;8.86;57.00;98565.97;5064584;28;20032;-47
2023/10/18 10:43:03;;;;;;;1.10;0.90;;;;;;;8.71;57.94;98595.16;5068498;28;20056;-51
2023/10/18 10:48:15;;;;;;;2.97;1.10;;;;;;;8.72;58.73;98594.25;5068968;28;20044;-47
2023/10/18 10:50:43;;;;;;;2.67;1.00;;;;;;;8.82;58.53;98598.13;5064428;28;20044;-49
2023/10/18 10:53:09;;;;;;;2.45;1.00;;;;;;;8.79;58.54;98597.44;5057512;28;20135;-46
2023/10/18 10:55:35;;;;;;;1.48;0.73;;;;;;;8.80;58.67;98597.34;5066139;28;20089;-48
2023/10/18 10:58:15;;;;;;;3.72;1.00;;;;;;;8.66;59.17;98602.31;5067598;28;20090;-47
2023/10/18 11:01:04;;;;;;;2.53;0.70;;;;;;;8.61;59.97;98596.47;5065139;28;20086;-46
2023/10/18 11:03:48;;;;;;;2.15;0.80;;;;;;;8.62;59.63;98586.97;5054055;28;20037;-50
2023/10/18 11:06:20;;;;;;;2.33;0.73;;;;;;;8.37;59.60;98531.03;5067458;28;20075;-48
2023/10/18 11:08:46;;;;;;;1.48;0.88;;;;;;;8.64;59.57;98577.34;5066369;28;20049;-50
2023/10/18 11:11:13;;;;;;;4.03;1.30;;;;;;;8.77;59.80;98588.88;5064560;28;20042;-48
2023/10/18 11:13:41;;;;;;;2.15;0.90;;;;;;;8.86;59.57;98593.63;5038047;28;20040;-45
2023/10/18 11:16:07;;;;;;;2.42;0.77;;;;;;;8.95;59.99;98600.19;5068106;28;20127;-49
2023/10/18 11:18:39;;;;;;;1.65;0.73;;;;;;;8.79;59.90;98592.25;5067339;28;20136;-48
2023/10/18 11:21:06;;;;;;;1.95;1.05;;;;;;;8.76;59.89;98598.41;5068092;28;20067;-47
2023/10/18 11:23:37;;;;;;;4.80;1.23;;;;;;;8.77;59.70;98594.91;5067724;28;20040;-48
2023/10/18 11:26:09;;;;;;;2.30;1.05;;;;;;;8.40;60.38;98562.00;5065552;28;20527;-51
2023/10/18 11:28:37;;;;;;;1.70;0.93;;;;;;;8.55;60.28;98594.16;5064384;28;20044;-49
2023/10/18 11:31:04;;;;;;;3.45;1.95;;;;;;;8.46;60.57;98591.97;5067031;28;20578;-48
2023/10/18 11:34:14;;;;;;;4.10;1.10;;;;;;;8.36;61.15;98585.50;5066654;28;20472;-48
2023/10/18 11:36:20;;;;;;;3.33;1.02;;;;;;;8.30;61.40;98593.53;5062550;28;20064;-53
2023/10/18 11:41:34;;;;;;;2.33;1.13;;;;;;;8.37;61.54;98588.00;5066270;28;20098;-49
2023/10/18 11:44:06;;;;;;;;;;;;;;;8.37;62.03;98582.03;5061584;28;20060;-49
2023/10/18 11:46:46;;;;;;;2.05;1.25;;;;;;;8.25;61.94;98559.19;5060832;28;20310;-52
2023/10/18 11:49:14;;;;;;;2.58;1.38;;;;;;;8.40;62.04;98590.47;5067677;28;20503;-48
2023/10/18 11:51:49;;;;;;;2.70;1.50;;;;;;;8.22;62.06;98562.75;5063753;28;20500;-48
2023/10/18 11:54:32;;;;;;;3.80;1.75;;;;;;;8.37;62.53;98582.03;5081680;28;20037;-50
2023/10/18 11:57:00;;;;;;;7.45;1.42;;;;;;;8.36;62.85;98580.31;5082890;28;20033;-44
2023/10/18 11:59:28;;;;;;;2.13;1.23;;;;;;;8.25;63.12;98580.75;5049294;28;20036;-48
2023/10/18 12:01:57;;;;;;;3.45;0.80;;;;;;;8.17;62.55;98580.22;5067698;28;20048;-50
2023/10/18 12:04:28;;;;;;;2.15;1.08;;;;;;;8.14;62.99;98576.94;5061314;28;20565;-58
2023/10/18 12:06:56;;;;;;;1.98;0.95;;;;;;;8.16;63.80;98568.22;5060699;28;20037;-46
2023/10/18 12:09:25;;;;;;;2.38;1.13;;;;;;;8.23;63.96;98573.94;5064476;28;20114;-48
2023/10/18 12:11:52;;;;;;;1.77;1.15;;;;;;;8.03;64.25;98549.75;5065380;28;20058;-47
2023/10/18 12:14:18;;;;;;;3.35;1.10;;;;;;;8.16;64.79;98554.41;5067772;28;20072;-46
2023/10/18 12:16:44;;;;;;;2.80;1.30;;;;;;;8.08;64.79;98568.50;5066378;28;20040;-41
2023/10/18 12:19:13;;;;;;;1.02;0.60;;;;;;;8.05;64.74;98576.41;5067446;28;20047;-44
2023/10/18 12:21:39;;;;;;;0.90;0.47;;;;;;;7.93;64.90;98570.91;5065666;28;20044;-43
2023/10/18 12:24:07;;;;;;;1.23;0.80;;;;;;;7.93;65.26;98582.09;5046530;28;20048;-44
2023/10/18 12:26:34;;;;;;;3.78;1.27;;;;;;;7.85;66.14;98585.91;5064910;28;20520;-45
2023/10/18 12:29:05;;;;;;;1.25;0.85;;;;;;;7.92;66.03;98579.56;5048707;28;20044;-44
2023/10/18 12:31:39;;;;;;;2.50;1.30;;;;;;;8.01;66.01;98580.03;5041612;28;20043;-51
2023/10/18 12:34:05;;;;;;;2.17;1.10;;;;;;;8.03;65.95;98573.03;5060268;28;20045;-46
2023/10/18 12:36:40;;;;;;;4.35;1.52;;;;;;;8.02;66.11;98570.50;5063512;28;20446;-45
2023/10/18 12:39:10;;;;;;;1.95;1.10;;;;;;;7.95;65.88;98574.28;5066196;28;20043;-45
2023/10/18 12:41:42;;;;;;;1.00;0.80;;;;;;;7.86;65.81;98583.25;5018713;28;20777;-43
2023/10/18 12:44:11;;;;;;;1.65;1.15;;;;;;;7.80;66.54;98572.31;5066313;28;20048;-45
2023/10/18 12:46:38;;;;;;;2.22;1.17;;;;;;;7.91;66.86;98577.88;5067524;28;20040;-48
2023/10/18 12:49:05;;;;;;;2.58;1.05;;;;;;;8.06;67.33;98579.81;5064646;28;20040;-50